• Join FlightAware (Why Join?)
  • Login
  • US Flag 
04:54PM EST


 

Airport Tracker/Info


-or-


 

Live Flight TrackerFlight Track Log ✈ N999TF ✈ 19-Dec-2013 ✈ KTTD - KUAO

Flight Track Log - Related Links

Times and Time Zones

All times are in EST time to prevent confusion due to time zone crossing. See the N999TF flight status page for this flight to view local times or setup timezone preferences in your user account.

Time Position Orientation Groundspeed Altitude Reporting Facility
EST Latitude Longitude Course Direction KTS MPH feet Rate Location/Type
05:16PM 45.5478 -122.4225 215° Southwest 108 124 700  Level Seattle Center
05:17PM 45.5328 -122.4347 210° Southwest 110 127 1,900 1,440 Climbing Seattle Center
05:18PM 45.4969 -122.4494 196° South 131 151 3,200 960 Climbing Seattle Center
05:19PM 45.4650 -122.4628 196° South 135 155 3,900 660 Climbing Seattle Center
05:19PM 45.4608 -122.4644 196° South 149 171 3,900  Level Seattle Center
05:20PM 45.4467 -122.5158 249° West 169 194 3,900  Level Seattle Center
05:20PM 45.4478 -122.5281 277° West 184 212 3,900  Level Seattle Center
05:21PM 45.3678 -122.6235 215° Southwest  Level Estimated
05:21PM 45.4533 -122.5847 278° West 174 200 3,900  Level Seattle Center
05:21PM 45.4506 -122.5947 248° West 173 199 3,900 -120 Level Seattle Center
05:22PM 45.4183 -122.6236 212° Southwest 170 196 3,800  Descending Seattle Center
05:22PM 45.4119 -122.6292 211° Southwest 167 192 3,900 60 Climbing Seattle Center
05:23PM 45.3725 -122.6447 195° South 164 189 3,900  Level Seattle Center
05:23PM 45.3678 -122.6469 198° South 166 191 3,900 60 Level Seattle Center
05:24PM 45.3358 -122.6169 147° Southeast 170 196 4,000 -360 Climbing Seattle Center
05:25PM 45.3753 -122.5925 24° Northeast 180 207 3,300 -840 Descending Seattle Center
05:25PM 45.3833 -122.5944 350° North 187 215 3,200 -300 Descending Seattle Center
05:26PM 45.4300 -122.5908 North 172 198 3,000 -180 Descending Seattle Center
05:27PM 45.4597 -122.6225 323° Northwest 163 188 2,900 -120 Descending Seattle Center
05:27PM 45.4594 -122.6281 266° West 161 185 2,900  Level Seattle Center
05:28PM 45.4750 -122.6822 292° West 160 184 2,900  Level Seattle Center
05:28PM 45.4739 -122.6900 258° West 158 182 2,900  Level Seattle Center
05:29PM 45.4422 -122.7208 214° Southwest 157 181 2,900  Level Seattle Center
05:29PM 45.4400 -122.7253 235° Southwest 156 180 2,900 -120 Level Seattle Center
05:30PM 45.4028 -122.7403 196° South 152 175 2,800 -120 Descending Seattle Center
05:30PM 45.3997 -122.7417 198° South 155 178 2,800 -420 Level Seattle Center
05:31PM 45.3603 -122.7489 187° South 155 178 2,400 -600 Descending Seattle Center
05:31PM 45.3542 -122.7508 193° South 154 177 2,200 -720 Descending Seattle Center
05:32PM 45.3189 -122.7589 189° South 141 162 1,600 -480 Descending Seattle Center
05:33PM 45.2894 -122.7619 184° South 116 133 1,300 -360 Descending Seattle Center